createdAt,value
2023-04-04T00:00:17.736Z,102346.03
2023-04-04T00:02:44.417Z,102347.94
2023-04-04T00:05:11.120Z,102349.16
2023-04-04T00:07:37.884Z,102346.94
2023-04-04T00:10:04.704Z,102343.16
2023-04-04T00:12:31.367Z,102345.22
2023-04-04T00:14:58.056Z,102346.25
2023-04-04T00:17:24.672Z,102339.31
2023-04-04T00:19:51.924Z,102343.81
2023-04-04T00:22:19.066Z,102334.28
2023-04-04T00:24:45.628Z,102346.06
2023-04-04T00:27:12.216Z,102334.28
2023-04-04T00:29:39.033Z,102334.53
2023-04-04T00:32:05.892Z,102334.59
2023-04-04T00:34:32.690Z,102335.25
2023-04-04T00:36:59.352Z,102339.94
2023-04-04T00:39:27.125Z,102334.34
2023-04-04T00:41:53.929Z,102338.72
2023-04-04T00:44:20.917Z,102333.09
2023-04-04T00:46:47.615Z,102331.16
2023-04-04T00:49:14.231Z,102326.72
2023-04-04T00:51:40.900Z,102325.84
2023-04-04T00:54:07.686Z,102328.28
2023-04-04T00:56:38.030Z,102331.34
2023-04-04T00:59:04.727Z,102337.13
2023-04-04T01:01:33.075Z,102327.78
2023-04-04T01:04:00.041Z,102333.69
2023-04-04T01:06:27.878Z,102329.31
2023-04-04T01:08:56.472Z,102324.97
2023-04-04T01:11:23.658Z,102317.41
2023-04-04T01:13:51.903Z,102321.31
2023-04-04T01:16:18.572Z,102327.31
2023-04-04T01:18:46.136Z,102318.88
2023-04-04T01:21:17.152Z,102320.66
2023-04-04T01:23:55.955Z,102329.50
2023-04-04T01:26:23.711Z,102319.19
2023-04-04T01:28:51.831Z,102320.03
2023-04-04T01:31:26.184Z,102315.91
2023-04-04T01:34:09.369Z,102306.00
2023-04-04T01:36:39.705Z,102320.03
2023-04-04T01:39:27.641Z,102316.56
2023-04-04T01:41:56.860Z,102309.41
2023-04-04T01:44:24.338Z,102306.63
2023-04-04T01:46:55.083Z,102300.63
2023-04-04T01:49:23.364Z,102302.28
2023-04-04T01:51:52.491Z,102296.53
2023-04-04T01:54:19.904Z,102298.22
2023-04-04T01:56:46.564Z,102302.09
2023-04-04T01:59:14.395Z,102301.19
2023-04-04T02:01:41.100Z,102313.09
2023-04-04T02:04:08.638Z,102300.56
2023-04-04T02:06:35.366Z,102296.66
2023-04-04T02:09:03.180Z,102300.81
2023-04-04T02:11:29.826Z,102301.06
2023-04-04T02:13:57.159Z,102288.03
2023-04-04T02:16:26.640Z,102296.25
2023-04-04T02:18:53.299Z,102299.84
2023-04-04T02:21:19.902Z,102298.56
2023-04-04T02:23:46.950Z,102298.06
2023-04-04T02:26:14.159Z,102294.75
2023-04-04T02:28:40.749Z,102293.50
2023-04-04T02:31:09.872Z,102303.31
2023-04-04T02:33:36.694Z,102302.16
2023-04-04T02:36:06.132Z,102302.47
2023-04-04T02:38:33.362Z,102309.13
2023-04-04T02:41:02.217Z,102298.88
2023-04-04T02:43:28.734Z,102288.91
2023-04-04T02:45:55.969Z,102291.84
2023-04-04T02:48:25.719Z,102284.66
2023-04-04T02:50:54.535Z,102285.44
2023-04-04T02:53:21.250Z,102283.41
2023-04-04T02:55:50.158Z,102291.00
2023-04-04T02:58:17.342Z,102288.97
2023-04-04T03:00:44.005Z,102285.78
2023-04-04T03:03:11.472Z,102285.16
2023-04-04T03:05:42.662Z,102281.09
2023-04-04T03:08:09.247Z,102287.19
2023-04-04T03:10:35.810Z,102282.97
2023-04-04T03:13:03.777Z,102274.91
2023-04-04T03:15:31.838Z,102275.38
2023-04-04T03:17:58.996Z,102272.50
2023-04-04T03:20:27.140Z,102267.28
2023-04-04T03:22:53.947Z,102265.44
2023-04-04T03:25:21.103Z,102268.81
2023-04-04T03:27:47.806Z,102267.78
2023-04-04T03:30:20.961Z,102272.13
2023-04-04T03:32:47.609Z,102271.09
2023-04-04T03:35:14.524Z,102268.97
2023-04-04T03:37:42.726Z,102265.25
2023-04-04T03:40:10.285Z,102261.94
2023-04-04T03:42:36.872Z,102255.38
2023-04-04T03:45:08.405Z,102254.59
2023-04-04T03:47:36.422Z,102251.56
2023-04-04T03:50:03.132Z,102255.28
2023-04-04T03:52:31.876Z,102255.53
2023-04-04T03:54:58.436Z,102260.66
2023-04-04T03:57:27.197Z,102256.84
2023-04-04T03:59:53.812Z,102251.72
2023-04-04T04:02:22.776Z,102251.47
2023-04-04T04:04:49.435Z,102248.91
2023-04-04T04:07:16.087Z,102242.78
2023-04-04T04:09:42.673Z,102250.72
2023-04-04T04:12:09.270Z,102244.81
2023-04-04T04:14:36.040Z,102245.06
2023-04-04T04:17:03.952Z,102245.63
2023-04-04T04:19:30.515Z,102249.41
2023-04-04T04:21:57.566Z,102247.28
2023-04-04T04:24:24.224Z,102249.41
2023-04-04T04:26:50.895Z,102246.34
2023-04-04T04:29:17.472Z,102255.84
2023-04-04T04:31:44.579Z,102251.97
2023-04-04T04:34:12.029Z,102252.25
2023-04-04T04:36:41.000Z,102245.72
2023-04-04T04:39:24.899Z,102244.72
2023-04-04T04:42:03.589Z,102248.03
2023-04-04T04:44:30.413Z,102251.09
2023-04-04T04:46:57.131Z,102243.56
2023-04-04T04:49:24.098Z,102253.28
2023-04-04T04:51:51.824Z,102255.03
2023-04-04T04:54:20.346Z,102248.94
2023-04-04T04:56:52.197Z,102249.94
2023-04-04T04:59:20.026Z,102243.94
2023-04-04T05:01:47.088Z,102246.00
2023-04-04T05:04:17.555Z,102248.94
2023-04-04T05:06:56.479Z,102250.47
2023-04-04T05:09:23.731Z,102256.09
2023-04-04T05:11:51.035Z,102250.47
2023-04-04T05:14:21.466Z,102245.13
2023-04-04T05:16:53.176Z,102255.34
2023-04-04T05:19:22.671Z,102251.78
2023-04-04T05:21:53.981Z,102246.66
2023-04-04T05:24:42.809Z,102254.59
2023-04-04T05:27:12.362Z,102265.06
2023-04-04T05:29:44.020Z,102266.59
2023-04-04T05:32:10.596Z,102268.88
2023-04-04T05:34:39.195Z,102270.81
2023-04-04T05:37:10.531Z,102268.88
2023-04-04T05:39:39.399Z,102268.34
2023-04-04T05:42:10.640Z,102268.31
2023-04-04T05:44:43.770Z,102275.25
2023-04-04T05:47:10.949Z,102275.00
2023-04-04T05:49:41.387Z,102278.84
2023-04-04T05:52:08.171Z,102280.56
2023-04-04T05:54:34.769Z,102271.63
2023-04-04T05:57:05.897Z,102282.03
2023-04-04T05:59:42.162Z,102281.13
2023-04-04T06:02:11.131Z,102280.91
2023-04-04T06:04:41.166Z,102277.69
2023-04-04T06:07:10.232Z,102282.59
2023-04-04T06:09:36.810Z,102285.78
2023-04-04T06:12:06.645Z,102296.19
2023-04-04T06:14:36.256Z,102293.66
2023-04-04T06:17:05.431Z,102297.69
2023-04-04T06:19:32.045Z,102296.38
2023-04-04T06:21:59.032Z,102294.22
2023-04-04T06:24:27.241Z,102295.38
2023-04-04T06:26:53.978Z,102298.31
2023-04-04T06:29:24.187Z,102302.44
2023-04-04T06:31:50.977Z,102304.00
2023-04-04T06:34:31.861Z,102314.28
2023-04-04T06:37:00.346Z,102317.31
2023-04-04T06:39:31.844Z,102309.38
2023-04-04T06:42:01.947Z,102316.59
2023-04-04T06:44:30.638Z,102309.38
2023-04-04T06:46:58.144Z,102309.59
2023-04-04T06:49:24.902Z,102316.94
2023-04-04T06:51:52.494Z,102318.84
2023-04-04T06:54:19.990Z,102318.28
2023-04-04T06:56:47.266Z,102315.13
2023-04-04T06:59:14.518Z,102315.28
2023-04-04T07:01:41.390Z,102312.78
2023-04-04T07:04:08.032Z,102320.25
2023-04-04T07:06:34.601Z,102317.41
2023-04-04T07:09:08.930Z,102318.81
2023-04-04T07:11:40.014Z,102314.34
2023-04-04T07:14:06.628Z,102315.84
2023-04-04T07:16:33.246Z,102315.69
2023-04-04T07:18:59.848Z,102318.03
2023-04-04T07:21:26.444Z,102321.50
2023-04-04T07:23:53.664Z,102315.84
2023-04-04T07:26:21.288Z,102307.91
2023-04-04T07:28:50.601Z,102311.84
2023-04-04T07:31:17.403Z,102304.00
2023-04-04T07:33:43.977Z,102311.47
2023-04-04T07:36:10.678Z,102310.59
2023-04-04T07:38:37.403Z,102311.72
2023-04-04T07:41:04.476Z,102312.34
2023-04-04T07:43:31.507Z,102312.06
2023-04-04T07:45:58.098Z,102307.03
2023-04-04T07:48:25.091Z,102305.44
2023-04-04T07:50:51.715Z,102293.22
2023-04-04T07:53:18.304Z,102306.09
2023-04-04T07:55:44.869Z,102302.28
2023-04-04T07:58:11.548Z,102293.25
2023-04-04T08:00:38.414Z,102301.97
2023-04-04T08:03:05.656Z,102297.88
2023-04-04T08:05:33.444Z,102296.97
2023-04-04T08:08:00.101Z,102298.53
2023-04-04T08:10:28.640Z,102295.72
2023-04-04T08:12:55.390Z,102302.16
2023-04-04T08:15:21.932Z,102301.34
2023-04-04T08:17:56.013Z,102301.75
2023-04-04T08:20:22.787Z,102292.75
2023-04-04T08:22:49.963Z,102298.84
2023-04-04T08:25:16.913Z,102294.03
2023-04-04T08:27:45.000Z,102295.34
2023-04-04T08:30:15.505Z,102297.72
2023-04-04T08:32:42.470Z,102297.28
2023-04-04T08:35:12.825Z,102295.69
2023-04-04T08:37:43.456Z,102297.16
2023-04-04T08:40:10.693Z,102299.75
2023-04-04T08:42:40.659Z,102291.66
2023-04-04T08:45:09.904Z,102296.97
2023-04-04T08:47:39.004Z,102296.09
2023-04-04T08:50:08.532Z,102292.53
2023-04-04T08:52:35.713Z,102281.84
2023-04-04T08:55:04.770Z,102294.53
2023-04-04T08:57:31.603Z,102300.72
2023-04-04T08:59:58.506Z,102290.06
2023-04-04T09:02:40.048Z,102294.69
2023-04-04T09:05:08.952Z,102299.81
2023-04-04T09:07:38.648Z,102288.72
2023-04-04T09:10:11.833Z,102296.13
2023-04-04T09:12:45.478Z,102290.22
2023-04-04T09:15:12.958Z,102292.19
2023-04-04T09:17:40.036Z,102290.13
2023-04-04T09:20:35.264Z,102289.59
2023-04-04T09:23:01.987Z,102286.31
2023-04-04T09:25:28.665Z,102275.41
2023-04-04T09:27:57.968Z,102281.84
2023-04-04T09:30:25.300Z,102271.75
2023-04-04T09:32:52.965Z,102277.38
2023-04-04T09:35:20.238Z,102284.44
2023-04-04T09:37:46.879Z,102282.81
2023-04-04T09:40:14.063Z,102264.25
2023-04-04T09:42:40.757Z,102269.13
2023-04-04T09:45:10.566Z,102266.22
2023-04-04T09:47:44.340Z,102271.72
2023-04-04T09:50:21.398Z,102270.38
2023-04-04T09:52:49.784Z,102261.63
2023-04-04T09:55:17.194Z,102263.53
2023-04-04T09:57:46.194Z,102259.28
2023-04-04T10:00:20.047Z,102261.81
2023-04-04T10:02:48.249Z,102252.50
2023-04-04T10:05:16.112Z,102258.13
2023-04-04T10:07:44.113Z,102254.25
2023-04-04T10:10:11.055Z,102255.94
2023-04-04T10:12:38.602Z,102256.34
2023-04-04T10:15:05.700Z,102254.97
2023-04-04T10:17:38.217Z,102257.66
2023-04-04T10:20:07.399Z,102246.63
2023-04-04T10:22:38.813Z,102239.59
2023-04-04T10:25:08.364Z,102237.22
2023-04-04T10:27:35.754Z,102229.31
2023-04-04T10:30:02.848Z,102225.19
2023-04-04T10:32:38.564Z,102233.66
2023-04-04T10:35:11.705Z,102227.41
2023-04-04T10:37:44.418Z,102228.88
2023-04-04T10:40:16.484Z,102224.94
2023-04-04T10:42:47.260Z,102216.25
2023-04-04T10:45:21.173Z,102217.13
2023-04-04T10:47:48.626Z,102217.63
2023-04-04T10:50:15.647Z,102215.72
2023-04-04T10:52:46.279Z,102213.38
2023-04-04T10:55:14.196Z,102210.19
2023-04-04T10:57:43.228Z,102211.03
2023-04-04T11:00:17.633Z,102204.38
2023-04-04T11:03:01.045Z,102204.06
2023-04-04T11:05:40.886Z,102199.53
2023-04-04T11:08:10.839Z,102199.16
2023-04-04T11:10:39.124Z,102194.38
2023-04-04T11:13:39.870Z,102193.97
2023-04-04T11:16:13.858Z,102197.31
2023-04-04T11:18:41.398Z,102196.19
2023-04-04T11:21:08.854Z,102181.97
2023-04-04T11:23:47.387Z,102190.34
2023-04-04T11:26:16.907Z,102189.22
2023-04-04T11:28:46.005Z,102186.34
2023-04-04T11:31:18.831Z,102180.47
2023-04-04T11:33:59.480Z,102184.00
2023-04-04T11:36:38.191Z,102157.50
2023-04-04T11:39:17.001Z,102170.41
2023-04-04T11:41:51.171Z,102168.81
2023-04-04T11:44:18.600Z,102170.50
2023-04-04T11:46:50.960Z,102162.59
2023-04-04T11:49:18.489Z,102148.84
2023-04-04T11:51:45.725Z,102139.28
2023-04-04T11:54:16.987Z,102152.06
2023-04-04T11:56:44.920Z,102151.13
2023-04-04T11:59:18.637Z,102151.19
2023-04-04T12:01:45.720Z,102139.53
2023-04-04T12:04:12.408Z,102146.13
2023-04-04T12:06:39.378Z,102139.50
2023-04-04T12:09:06.625Z,102141.06
2023-04-04T12:11:37.167Z,102131.97
2023-04-04T12:14:03.975Z,102127.66
2023-04-04T12:16:30.773Z,102126.75
2023-04-04T12:19:01.904Z,102139.75
2023-04-04T12:21:31.637Z,102141.88
2023-04-04T12:23:58.543Z,102138.69
2023-04-04T12:26:29.646Z,102127.25
2023-04-04T12:28:59.780Z,102115.72
2023-04-04T12:31:27.716Z,102123.13
2023-04-04T12:33:54.917Z,102124.72
2023-04-04T12:36:25.340Z,102111.88
2023-04-04T12:39:07.299Z,102110.72
2023-04-04T12:41:35.228Z,102091.97
2023-04-04T12:44:07.455Z,102092.63
2023-04-04T12:46:42.006Z,102092.88
2023-04-04T12:49:11.676Z,102086.47
2023-04-04T12:51:38.725Z,102079.56
2023-04-04T12:54:06.779Z,102076.19
2023-04-04T12:56:35.444Z,102078.44
2023-04-04T12:59:03.353Z,102075.47
2023-04-04T13:01:32.235Z,102076.44
2023-04-04T13:04:04.704Z,102064.63
2023-04-04T13:06:32.648Z,102072.25
2023-04-04T13:08:59.616Z,102063.09
2023-04-04T13:11:27.539Z,102071.78
2023-04-04T13:14:02.723Z,102054.63
2023-04-04T13:16:35.581Z,102052.97
2023-04-04T13:19:02.715Z,102051.84
2023-04-04T13:21:30.769Z,102045.94
2023-04-04T13:23:57.871Z,102027.22
2023-04-04T13:26:24.418Z,102029.50
2023-04-04T13:28:51.061Z,102028.09
2023-04-04T13:31:17.784Z,102028.00
2023-04-04T13:33:44.841Z,102030.38
2023-04-04T13:36:13.981Z,102028.97
2023-04-04T13:38:41.195Z,102018.59
2023-04-04T13:41:07.840Z,102012.63
2023-04-04T13:43:34.546Z,102003.19
2023-04-04T13:46:03.179Z,101998.63
2023-04-04T13:48:29.811Z,101998.91
2023-04-04T13:50:56.405Z,102003.53
2023-04-04T13:53:23.037Z,101998.47
2023-04-04T13:56:13.199Z,102007.22
2023-04-04T13:58:36.393Z,101985.53
2023-04-04T14:01:06.975Z,101994.38
2023-04-04T14:03:33.736Z,101982.91
2023-04-04T14:06:06.377Z,101988.44
2023-04-04T14:08:37.033Z,101980.22
2023-04-04T14:11:03.699Z,101988.41
2023-04-04T14:13:30.267Z,101985.50
2023-04-04T14:15:56.859Z,101979.84
2023-04-04T14:18:23.496Z,101972.81
2023-04-04T14:20:50.043Z,101971.59
2023-04-04T14:23:16.696Z,101972.75
2023-04-04T14:25:43.400Z,101961.22
2023-04-04T14:28:10.081Z,101965.97
2023-04-04T14:30:36.622Z,101962.34
2023-04-04T14:33:03.303Z,101952.69
2023-04-04T14:35:29.972Z,101949.13
2023-04-04T14:37:57.139Z,101946.38
2023-04-04T14:40:23.852Z,101950.97
2023-04-04T14:42:50.594Z,101950.16
2023-04-04T14:45:18.144Z,101951.97
2023-04-04T14:47:44.696Z,101944.63
2023-04-04T14:50:11.440Z,101929.59
2023-04-04T14:52:39.891Z,101929.06
2023-04-04T14:55:09.402Z,101926.66
2023-04-04T14:57:46.941Z,101929.00
2023-04-04T15:00:23.958Z,101928.53
2023-04-04T15:02:51.248Z,101914.28
2023-04-04T15:05:19.116Z,101917.94
2023-04-04T15:07:46.416Z,101930.59
2023-04-04T15:10:21.431Z,101921.22
2023-04-04T15:12:47.973Z,101924.13
2023-04-04T15:15:15.664Z,101924.44
2023-04-04T15:17:42.372Z,101920.69
2023-04-04T15:20:09.595Z,101918.72
2023-04-04T15:22:38.437Z,101914.22
2023-04-04T15:25:06.191Z,101916.16
2023-04-04T15:27:33.213Z,101916.38
2023-04-04T15:29:59.795Z,101910.69
2023-04-04T15:32:26.411Z,101916.75
2023-04-04T15:34:53.573Z,101914.56
2023-04-04T15:37:20.341Z,101913.50
2023-04-04T15:39:53.589Z,101917.22
2023-04-04T15:42:21.056Z,101914.03
2023-04-04T15:44:47.724Z,101914.16
2023-04-04T15:47:16.581Z,101911.88
2023-04-04T15:49:43.323Z,101916.16
2023-04-04T15:52:09.945Z,101910.88
2023-04-04T15:54:36.538Z,101914.22
2023-04-04T15:57:06.277Z,101915.09
2023-04-04T15:59:32.986Z,101911.97
2023-04-04T16:01:59.801Z,101904.69
2023-04-04T16:04:26.472Z,101899.28
2023-04-04T16:06:53.039Z,101910.91
2023-04-04T16:09:21.230Z,101903.19
2023-04-04T16:11:47.821Z,101910.97
2023-04-04T16:14:14.482Z,101907.06
2023-04-04T16:16:41.287Z,101897.00
2023-04-04T16:19:08.199Z,101897.22
2023-04-04T16:21:35.070Z,101889.19
2023-04-04T16:24:03.485Z,101900.25
2023-04-04T16:26:30.126Z,101902.03
2023-04-04T16:28:56.690Z,101901.91
2023-04-04T16:31:24.633Z,101891.22
2023-04-04T16:33:51.420Z,101899.91
2023-04-04T16:36:18.188Z,101894.75
2023-04-04T16:38:44.867Z,101891.97
2023-04-04T16:41:11.520Z,101891.13
2023-04-04T16:43:38.073Z,101883.84
2023-04-04T16:46:05.318Z,101878.56
2023-04-04T16:48:31.989Z,101886.44
2023-04-04T16:50:58.532Z,101877.34
2023-04-04T16:53:25.528Z,101880.16
2023-04-04T16:55:52.087Z,101872.91
2023-04-04T16:58:19.302Z,101876.56
2023-04-04T17:00:45.843Z,101874.19
2023-04-04T17:03:12.397Z,101872.00
2023-04-04T17:05:38.974Z,101871.75
2023-04-04T17:08:06.063Z,101870.44
2023-04-04T17:10:33.661Z,101867.66
2023-04-04T17:13:00.594Z,101867.50
2023-04-04T17:15:27.175Z,101865.47
2023-04-04T17:17:53.995Z,101864.84
2023-04-04T17:20:20.746Z,101864.94
2023-04-04T17:22:48.422Z,101862.38
2023-04-04T17:25:15.440Z,101864.16
2023-04-04T17:27:41.980Z,101867.38
2023-04-04T17:30:09.422Z,101859.06
2023-04-04T17:32:36.079Z,101862.09
2023-04-04T17:35:02.650Z,101858.34
2023-04-04T17:37:30.956Z,101861.78
2023-04-04T17:40:00.005Z,101859.44
2023-04-04T17:42:27.248Z,101854.66
2023-04-04T17:44:54.170Z,101855.44
2023-04-04T17:47:21.233Z,101855.53
2023-04-04T17:49:47.896Z,101866.38
2023-04-04T17:52:19.077Z,101859.56
2023-04-04T17:54:48.647Z,101860.47
2023-04-04T17:57:15.643Z,101861.56
2023-04-04T17:59:42.590Z,101861.25
2023-04-04T18:02:09.158Z,101865.22
2023-04-04T18:04:36.841Z,101869.66
2023-04-04T18:07:03.723Z,101869.44
2023-04-04T18:09:30.467Z,101869.72
2023-04-04T18:11:57.512Z,101859.44
2023-04-04T18:14:24.094Z,101857.44
2023-04-04T18:16:50.785Z,101866.31
2023-04-04T18:19:17.352Z,101864.81
2023-04-04T18:21:48.231Z,101869.66
2023-04-04T18:24:14.809Z,101864.41
2023-04-04T18:26:41.372Z,101867.88
2023-04-04T18:29:08.293Z,101866.09
2023-04-04T18:31:35.086Z,101865.13
2023-04-04T18:34:01.962Z,101857.88
2023-04-04T18:36:28.539Z,101863.09
2023-04-04T18:38:55.153Z,101866.31
2023-04-04T18:41:21.789Z,101861.53
2023-04-04T18:43:48.422Z,101866.44
2023-04-04T18:46:15.471Z,101862.31
2023-04-04T18:48:42.088Z,101858.56
2023-04-04T18:51:08.631Z,101865.91
2023-04-04T18:53:35.173Z,101867.06
2023-04-04T18:56:02.628Z,101865.91
2023-04-04T18:58:29.170Z,101859.94
2023-04-04T19:00:58.365Z,101862.16
2023-04-04T19:03:25.991Z,101863.06
2023-04-04T19:05:54.143Z,101866.88
2023-04-04T19:08:20.683Z,101867.78
2023-04-04T19:10:50.867Z,101872.06
2023-04-04T19:13:18.134Z,101862.91
2023-04-04T19:15:44.776Z,101867.25
2023-04-04T19:18:11.826Z,101867.47
2023-04-04T19:20:38.652Z,101867.56
2023-04-04T19:23:05.271Z,101877.69
2023-04-04T19:25:31.968Z,101866.97
2023-04-04T19:27:58.616Z,101872.56
2023-04-04T19:30:43.166Z,101876.88
2023-04-04T19:33:24.650Z,101872.13
2023-04-04T19:36:17.630Z,101872.97
2023-04-04T19:38:44.694Z,101874.06
2023-04-04T19:41:23.084Z,101874.22
2023-04-04T19:43:50.558Z,101880.94
2023-04-04T19:46:25.623Z,101882.78
2023-04-04T19:48:56.430Z,101889.66
2023-04-04T19:51:22.936Z,101883.03
2023-04-04T19:53:51.542Z,101884.72
2023-04-04T19:56:19.656Z,101879.22
2023-04-04T19:58:48.268Z,101881.63
2023-04-04T20:01:23.296Z,101884.88
2023-04-04T20:03:50.352Z,101888.13
2023-04-04T20:06:27.901Z,101889.75
2023-04-04T20:09:02.574Z,101874.69
2023-04-04T20:11:34.715Z,101885.28
2023-04-04T20:14:05.066Z,101882.03
2023-04-04T20:16:31.873Z,101883.00
2023-04-04T20:18:59.531Z,101876.94
2023-04-04T20:21:28.546Z,101888.72
2023-04-04T20:24:05.042Z,101884.00
2023-04-04T20:27:21.809Z,101885.06
2023-04-04T20:29:54.923Z,101879.88
2023-04-04T20:32:21.775Z,101885.78
2023-04-04T20:34:50.215Z,101880.75
2023-04-04T20:37:25.945Z,101880.78
2023-04-04T20:40:03.994Z,101881.28
2023-04-04T20:42:34.062Z,101879.50
2023-04-04T20:45:09.880Z,101874.00
2023-04-04T20:47:45.347Z,101872.81
2023-04-04T20:50:17.989Z,101883.13
2023-04-04T20:52:53.484Z,101877.78
2023-04-04T20:55:22.368Z,101885.72
2023-04-04T20:57:50.219Z,101888.75
2023-04-04T21:00:29.370Z,101883.84
2023-04-04T21:02:58.552Z,101884.09
2023-04-04T21:05:38.460Z,101878.97
2023-04-04T21:08:37.215Z,101882.28
2023-04-04T21:11:04.274Z,101876.31
2023-04-04T21:13:34.325Z,101883.84
2023-04-04T21:16:03.838Z,101879.41
2023-04-04T21:18:31.617Z,101878.00
2023-04-04T21:21:09.886Z,101875.75
2023-04-04T21:23:39.567Z,101871.72
2023-04-04T21:26:09.928Z,101873.41
2023-04-04T21:28:38.304Z,101872.59
2023-04-04T21:31:13.715Z,101869.38
2023-04-04T21:33:44.586Z,101879.09
2023-04-04T21:36:23.834Z,101874.53
2023-04-04T21:38:58.276Z,101871.13
2023-04-04T21:41:33.118Z,101867.38
2023-04-04T21:44:02.153Z,101861.56
2023-04-04T21:46:31.830Z,101859.25
2023-04-04T21:48:58.427Z,101867.06
2023-04-04T21:51:26.088Z,101862.66
2023-04-04T21:53:53.052Z,101859.13
2023-04-04T21:56:20.003Z,101859.75
2023-04-04T21:58:47.005Z,101856.44
2023-04-04T22:01:13.679Z,101849.69
2023-04-04T22:04:05.560Z,101846.53
2023-04-04T22:06:32.338Z,101843.94
2023-04-04T22:09:01.423Z,101850.00
2023-04-04T22:11:29.075Z,101847.13
2023-04-04T22:14:07.041Z,101846.00
2023-04-04T22:16:39.001Z,101843.75
2023-04-04T22:19:07.316Z,101840.06
2023-04-04T22:21:36.247Z,101843.13
2023-04-04T22:24:03.213Z,101840.00
2023-04-04T22:26:32.577Z,101833.63
2023-04-04T22:29:00.364Z,101833.63
2023-04-04T22:31:28.013Z,101828.81
2023-04-04T22:33:54.883Z,101828.00
2023-04-04T22:36:23.626Z,101832.69
2023-04-04T22:38:56.511Z,101827.66
2023-04-04T22:41:28.007Z,101831.03
2023-04-04T22:43:54.948Z,101827.81
2023-04-04T22:46:21.590Z,101827.09
2023-04-04T22:48:48.172Z,101831.03
2023-04-04T22:51:17.915Z,101828.13
2023-04-04T22:53:45.622Z,101821.34
2023-04-04T22:56:12.212Z,101828.00
2023-04-04T22:58:38.826Z,101830.19
2023-04-04T23:01:06.270Z,101832.41
2023-04-04T23:03:33.279Z,101820.84
2023-04-04T23:06:22.035Z,101814.22
2023-04-04T23:08:48.626Z,101828.63
2023-04-04T23:11:15.696Z,101813.25
2023-04-04T23:13:43.238Z,101815.56
2023-04-04T23:16:10.040Z,101814.16
2023-04-04T23:18:36.618Z,101817.44
2023-04-04T23:21:03.762Z,101822.47
2023-04-04T23:23:30.549Z,101819.22
2023-04-04T23:25:58.276Z,101822.94
2023-04-04T23:28:29.315Z,101820.41
2023-04-04T23:30:55.967Z,101820.59
2023-04-04T23:33:22.541Z,101814.91
2023-04-04T23:35:49.106Z,101815.88
2023-04-04T23:38:15.996Z,101806.75
2023-04-04T23:40:42.677Z,101814.31
2023-04-04T23:43:09.505Z,101806.59
2023-04-04T23:45:39.586Z,101804.53
2023-04-04T23:48:07.431Z,101801.06
2023-04-04T23:50:34.247Z,101808.97
2023-04-04T23:53:01.010Z,101803.00
2023-04-04T23:55:27.591Z,101801.84
2023-04-04T23:58:00.714Z,101801.66
